Kamenomostskiy, Russia
Current Conditions -  °F | °C
As of 8:00 PM on Friday 19 Dec 2014 (Local Time) from URSS Reporting Station
Overcast Overcast  
Wind Chill: 50°   Ceiling: 3500
Heat Index: 50°   Visibility: 6mi
Dew Point: 46°   Wind: 4mph
Humidity: 87%   Direction: 80°E
Pressure: 30.21"   Gusts: NA
Location:  44.18°N, 40.14°E
Report Text: URSS 191700Z 08002MPS 9999 OVC035CB 10/08 Q1023 NOSIG RMKR02/05002MPS MT OBSC QFE766 06290050 02//////
Loading
Personal Weather Stations






























Interactive Weather Map New forecast layout! Learn more

10-Day Weather Forecast

Advertisements
Track Severe Weather on mobile